Time;durP1;ratioP1;P1;durP2;ratioP2;P2;SDS_P1;SDS_P2;PMS_P1;PMS_P2;Temp;Humidity;BMP_temperature;BMP_pressure;BME280_temperature;BME280_humidity;BME280_pressure;Samples;Min_cycle;Max_cycle;Signal;HPM_P1;HPM_P2
2022/05/21 00:02:55;;;;;;;9.82;1.67;;;;;;;1.80;87.50;94697.69;6227416;28;20503;-67
2022/05/21 00:05:59;;;;;;;6.57;1.83;;;;;;;1.90;87.13;94699.72;6223798;28;20504;-67
2022/05/21 00:09:00;;;;;;;6.22;1.80;;;;;;;1.84;87.50;94692.31;6216883;28;20041;-67
2022/05/21 00:12:03;;;;;;;5.53;1.77;;;;;;;1.86;87.93;94696.47;6225516;28;20041;-67
2022/05/21 00:15:08;;;;;;;11.18;1.63;;;;;;;1.88;87.58;94686.00;6205037;28;20042;-66
2022/05/21 00:18:10;;;;;;;13.70;2.88;;;;;;;1.91;87.83;94665.06;6216142;28;20042;-67
2022/05/21 00:21:13;;;;;;;9.90;2.17;;;;;;;1.94;87.39;94667.44;6221167;28;20416;-68
2022/05/21 00:24:15;;;;;;;14.63;3.00;;;;;;;1.92;87.38;94677.09;6227040;28;20045;-67
2022/05/21 00:27:18;;;;;;;12.35;2.03;;;;;;;2.00;87.93;94685.19;6208903;28;20389;-67
2022/05/21 00:30:20;;;;;;;13.38;2.20;;;;;;;1.94;88.22;94678.66;6222365;28;20054;-68
2022/05/21 00:33:27;;;;;;;11.68;2.45;;;;;;;1.98;88.23;94669.75;6235229;28;20124;-67
2022/05/21 00:36:31;;;;;;;5.45;1.63;;;;;;;2.01;88.45;94666.13;6213436;28;20052;-68
2022/05/21 00:39:37;;;;;;;9.80;2.40;;;;;;;2.07;87.78;94683.88;6230979;28;20191;-67
2022/05/21 00:42:46;;;;;;;14.02;3.03;;;;;;;2.04;87.85;94678.88;6230236;28;20034;-68
2022/05/21 00:45:51;;;;;;;13.30;2.78;;;;;;;2.09;88.00;94666.41;6227200;28;20132;-68
2022/05/21 00:49:01;;;;;;;6.88;2.17;;;;;;;2.16;88.01;94640.91;6236542;28;20108;-68
2022/05/21 00:52:12;;;;;;;10.50;2.60;;;;;;;2.12;88.14;94624.69;6226407;28;20135;-67
2022/05/21 00:55:29;;;;;;;6.65;2.08;;;;;;;2.20;88.12;94617.22;6227670;28;20048;-67
2022/05/21 01:01:59;;;;;;;6.28;1.40;;;;;;;2.38;88.41;94598.75;6231528;28;20061;-67
2022/05/21 01:05:06;;;;;;;12.20;1.98;;;;;;;2.40;87.93;94586.50;6235685;28;20148;-67
2022/05/21 01:08:10;;;;;;;4.43;1.48;;;;;;;2.38;87.81;94567.63;6226375;28;20049;-67
2022/05/21 01:11:15;;;;;;;6.72;1.40;;;;;;;2.34;87.64;94569.56;6208220;28;20140;-68
2022/05/21 01:14:20;;;;;;;4.75;1.10;;;;;;;2.29;87.83;94563.03;6228148;28;20045;-67
2022/05/21 01:17:24;;;;;;;5.07;1.23;;;;;;;2.32;88.33;94583.59;6224488;28;20045;-67
2022/05/21 01:20:41;;;;;;;6.18;1.80;;;;;;;2.37;88.13;94566.78;6217288;28;20038;-67
2022/05/21 01:23:42;;;;;;;9.10;1.30;;;;;;;2.30;88.60;94564.72;6219019;28;20419;-67
2022/05/21 01:26:46;;;;;;;4.22;1.15;;;;;;;2.27;88.63;94519.06;6219417;28;20038;-67
2022/05/21 01:29:51;;;;;;;4.95;1.40;;;;;;;2.42;88.60;94486.00;6228387;28;20040;-67
2022/05/21 01:32:58;;;;;;;4.20;1.13;;;;;;;2.40;87.89;94464.50;6232047;28;20041;-67
2022/05/21 01:36:05;;;;;;;6.75;1.58;;;;;;;2.36;88.29;94476.88;6223549;28;20068;-67
2022/05/21 01:39:09;;;;;;;2.38;0.60;;;;;;;2.43;88.66;94513.59;6221459;28;20157;-67
2022/05/21 01:42:11;;;;;;;1.38;0.95;;;;;;;2.44;88.21;94547.25;6221931;28;20037;-67
2022/05/21 01:45:15;;;;;;;5.03;0.80;;;;;;;2.38;88.58;94539.06;6218158;28;20054;-67
2022/05/21 01:48:21;;;;;;;2.20;0.75;;;;;;;2.44;88.83;94541.22;6222465;28;20045;-67
2022/05/21 01:51:22;;;;;;;2.88;0.57;;;;;;;2.52;88.64;94528.56;6234333;28;20064;-67
2022/05/21 01:54:24;;;;;;;1.42;0.55;;;;;;;2.51;88.87;94511.28;6222927;28;20037;-67
2022/05/21 01:57:25;;;;;;;2.55;0.50;;;;;;;2.55;88.90;94512.75;6218998;28;20483;-67
2022/05/21 02:00:31;;;;;;;0.47;0.47;;;;;;;2.54;88.94;94542.22;6225209;28;20132;-67
2022/05/21 02:03:33;;;;;;;1.55;0.70;;;;;;;2.63;89.00;94520.84;6228640;28;20052;-67
2022/05/21 02:06:39;;;;;;;2.30;0.50;;;;;;;2.66;89.24;94492.03;6219397;28;20053;-67
2022/05/21 02:09:45;;;;;;;1.05;0.52;;;;;;;2.76;89.04;94493.97;6226483;28;20045;-67
2022/05/21 02:12:49;;;;;;;1.25;0.77;;;;;;;2.83;89.23;94510.75;6227977;28;20736;-67
2022/05/21 02:15:50;;;;;;;2.97;0.98;;;;;;;2.84;89.36;94515.03;6228400;28;20037;-67
2022/05/21 02:18:54;;;;;;;4.28;1.00;;;;;;;2.89;89.20;94516.34;6212582;28;20050;-67
2022/05/21 02:21:56;;;;;;;;;;;;;;;2.95;89.13;94499.50;6215064;28;20053;-67
2022/05/21 02:25:03;;;;;;;3.33;1.65;;;;;;;2.94;88.90;94497.81;6218970;28;19928;-68
2022/05/21 02:28:12;;;;;;;3.17;1.40;;;;;;;2.94;89.19;94484.84;6224288;28;20049;-67
2022/05/21 02:31:14;;;;;;;0.88;0.70;;;;;;;3.01;88.96;94475.66;6221560;28;20542;-68
2022/05/21 02:34:18;;;;;;;0.73;0.60;;;;;;;3.06;88.93;94496.94;6223146;28;20136;-67
2022/05/21 02:40:46;;;;;;;0.93;0.63;;;;;;;3.15;89.31;94487.66;6220604;28;20045;-68
2022/05/21 02:43:50;;;;;;;2.22;1.10;;;;;;;3.20;89.30;94482.09;6217500;28;20496;-67
2022/05/21 02:46:52;;;;;;;0.95;0.80;;;;;;;3.28;89.23;94485.78;6227605;28;20038;-68
2022/05/21 02:49:56;;;;;;;1.95;1.35;;;;;;;3.17;88.92;94490.13;6223269;28;20380;-68
2022/05/21 02:52:58;;;;;;;1.58;0.93;;;;;;;3.37;89.32;94505.09;6225358;28;20144;-67
2022/05/21 02:56:08;;;;;;;0.80;0.50;;;;;;;3.37;89.51;94499.88;6223312;28;20050;-67
2022/05/21 02:59:09;;;;;;;0.50;0.40;;;;;;;3.47;89.49;94494.81;6227888;28;20052;-68
2022/05/21 03:02:10;;;;;;;0.30;0.30;;;;;;;3.47;89.14;94484.41;6225011;28;20049;-68
2022/05/21 03:05:15;;;;;;;0.52;0.50;;;;;;;3.56;89.32;94484.53;6225089;28;20053;-67
2022/05/21 03:11:40;;;;;;;0.70;0.50;;;;;;;3.64;89.14;94496.16;6226201;28;20129;-66
2022/05/21 03:14:49;;;;;;;0.50;0.50;;;;;;;3.65;89.12;94497.78;6221222;28;20034;-68
2022/05/21 03:17:53;;;;;;;0.28;0.28;;;;;;;3.66;89.32;94502.06;6230305;28;20041;-68
2022/05/21 03:20:57;;;;;;;1.10;0.80;;;;;;;3.73;89.39;94508.44;6226861;28;20041;-68
2022/05/21 03:24:04;;;;;;;0.40;0.40;;;;;;;3.77;89.29;94502.09;6221133;28;20496;-68
2022/05/21 03:27:07;;;;;;;0.45;0.40;;;;;;;3.78;89.12;94514.13;6224482;28;20072;-68
2022/05/21 03:30:15;;;;;;;0.32;0.30;;;;;;;3.76;89.29;94527.25;6217839;28;20120;-68
2022/05/21 03:33:20;;;;;;;0.38;0.30;;;;;;;3.71;89.18;94497.31;6226251;28;20045;-67
2022/05/21 03:36:24;;;;;;;0.25;0.25;;;;;;;3.81;89.23;94488.72;6217275;28;20038;-69
2022/05/21 03:39:28;;;;;;;0.40;0.40;;;;;;;3.98;89.33;94502.22;6223701;28;20041;-68
2022/05/21 03:42:33;;;;;;;3.10;1.02;;;;;;;4.07;89.18;94491.09;6225390;28;20041;-68
2022/05/21 03:45:40;;;;;;;2.83;0.68;;;;;;;4.21;88.83;94508.25;6226559;28;20053;-68
2022/05/21 03:48:45;;;;;;;1.88;0.70;;;;;;;4.15;88.58;94524.34;6221665;28;20053;-68
2022/05/21 03:51:48;;;;;;;1.15;0.50;;;;;;;4.23;88.40;94521.97;6243219;28;20136;-68
2022/05/21 03:54:50;;;;;;;2.80;0.77;;;;;;;4.23;88.04;94512.38;6239342;28;20048;-68
2022/05/21 03:57:51;;;;;;;1.42;0.70;;;;;;;4.31;87.91;94501.38;6218268;28;20551;-68
2022/05/21 04:00:58;;;;;;;1.00;0.80;;;;;;;4.36;87.60;94488.84;6226696;28;20607;-68
2022/05/21 04:04:02;;;;;;;0.63;0.60;;;;;;;4.46;87.64;94487.16;6233469;28;20427;-68
2022/05/21 04:07:09;;;;;;;0.63;0.40;;;;;;;4.60;86.81;94500.88;6227188;28;20046;-68
2022/05/21 04:10:14;;;;;;;0.40;0.40;;;;;;;4.40;86.54;94525.88;6223696;28;20057;-69
2022/05/21 04:13:16;;;;;;;0.40;0.40;;;;;;;4.30;86.98;94525.75;6235471;28;20091;-68
2022/05/21 04:16:23;;;;;;;0.30;0.30;;;;;;;4.23;86.86;94529.78;6231379;28;20442;-69
2022/05/21 04:19:28;;;;;;;0.25;0.25;;;;;;;4.13;86.19;94534.03;6224774;28;20042;-69
2022/05/21 04:22:33;;;;;;;0.40;0.40;;;;;;;4.09;85.95;94532.63;6222802;28;20045;-68
2022/05/21 04:25:37;;;;;;;0.40;0.40;;;;;;;4.10;85.89;94544.69;6226517;28;20046;-68
2022/05/21 04:28:41;;;;;;;0.30;0.30;;;;;;;4.08;86.59;94541.34;6215601;28;20511;-68
2022/05/21 04:31:46;;;;;;;0.40;0.30;;;;;;;4.26;86.52;94540.78;6233073;28;20187;-69
2022/05/21 04:34:49;;;;;;;0.30;0.30;;;;;;;4.32;85.19;94539.47;6225851;28;20041;-70
2022/05/21 04:37:56;;;;;;;0.30;0.30;;;;;;;4.37;85.03;94552.16;6225941;28;20610;-71
2022/05/21 04:41:00;;;;;;;0.38;0.30;;;;;;;4.41;85.38;94546.56;6227127;28;20038;-69
2022/05/21 04:44:02;;;;;;;0.40;0.40;;;;;;;4.43;84.52;94544.69;6230040;28;20415;-69
2022/05/21 04:47:11;;;;;;;0.75;0.32;;;;;;;4.30;85.00;94533.56;6227266;28;20062;-69
2022/05/21 04:50:13;;;;;;;0.52;0.40;;;;;;;4.44;83.89;94533.31;6223007;28;20041;-69
2022/05/21 04:53:15;;;;;;;0.82;0.30;;;;;;;4.37;85.19;94532.16;6225636;28;20055;-69
2022/05/21 04:56:16;;;;;;;0.40;0.40;;;;;;;4.55;86.07;94539.47;6221878;28;20037;-68
2022/05/21 04:59:22;;;;;;;0.20;0.20;;;;;;;4.84;85.74;94530.19;6224921;28;20052;-70
2022/05/21 05:02:24;;;;;;;0.52;0.20;;;;;;;4.91;85.24;94536.56;6215309;28;20089;-69
2022/05/21 05:05:25;;;;;;;0.35;0.35;;;;;;;5.00;85.28;94547.19;6230415;28;20037;-69
2022/05/21 05:08:30;;;;;;;0.20;0.20;;;;;;;5.23;85.00;94545.34;6208165;28;20054;-69
2022/05/21 05:11:34;;;;;;;0.40;0.38;;;;;;;5.30;84.97;94526.47;6228873;28;20161;-71
2022/05/21 05:14:41;;;;;;;0.52;0.30;;;;;;;5.30;83.62;94531.69;6222419;28;20038;-69
2022/05/21 05:17:47;;;;;;;0.50;0.40;;;;;;;5.37;84.09;94535.44;6223276;28;20140;-70
2022/05/21 05:20:52;;;;;;;0.30;0.30;;;;;;;5.29;84.23;94543.06;6232720;28;20049;-70
2022/05/21 05:23:53;;;;;;;0.93;0.40;;;;;;;5.27;83.91;94531.13;6227521;28;20056;-70
2022/05/21 05:26:55;;;;;;;0.93;0.65;;;;;;;5.47;84.58;94542.53;6226098;28;20175;-70
2022/05/21 05:29:56;;;;;;;0.80;0.40;;;;;;;5.64;84.74;94547.19;6224312;28;20617;-70
2022/05/21 05:33:02;;;;;;;0.50;0.40;;;;;;;5.66;84.15;94553.09;6225224;28;20414;-70
2022/05/21 05:36:10;;;;;;;1.13;0.47;;;;;;;5.61;82.58;94555.28;6222212;28;20048;-69
2022/05/21 05:39:16;;;;;;;1.95;1.00;;;;;;;5.49;84.47;94557.09;6228355;28;20045;-69
2022/05/21 05:42:22;;;;;;;0.50;0.50;;;;;;;5.75;84.37;94562.78;6229829;28;20037;-67
2022/05/21 05:45:24;;;;;;;0.30;0.30;;;;;;;6.03;83.11;94555.31;6229005;28;20076;-68
2022/05/21 05:48:29;;;;;;;1.30;0.50;;;;;;;6.04;83.12;94562.16;6227379;28;20042;-68
2022/05/21 05:51:30;;;;;;;0.40;0.38;;;;;;;6.03;82.35;94570.97;6224689;28;20054;-68
2022/05/21 05:54:35;;;;;;;0.40;0.40;;;;;;;6.06;82.56;94568.09;6229794;28;20034;-67
2022/05/21 05:57:39;;;;;;;0.98;0.80;;;;;;;6.34;82.41;94576.19;6230547;28;20044;-67
2022/05/21 06:00:46;;;;;;;1.02;0.70;;;;;;;6.65;80.33;94575.25;6219426;28;20038;-66
2022/05/21 06:03:54;;;;;;;0.80;0.80;;;;;;;6.77;80.91;94575.16;6224030;28;20147;-68
2022/05/21 06:07:00;;;;;;;1.38;0.90;;;;;;;6.70;79.74;94586.13;6224642;28;20050;-66
2022/05/21 06:10:06;;;;;;;1.65;1.00;;;;;;;6.68;79.99;94593.28;6227401;28;20057;-65
2022/05/21 06:13:07;;;;;;;3.42;1.88;;;;;;;6.88;80.67;94598.56;6224651;28;20044;-66
2022/05/21 06:16:10;;;;;;;4.55;2.33;;;;;;;7.41;79.71;94603.50;6217911;28;20033;-64
2022/05/21 06:19:11;;;;;;;2.78;1.45;;;;;;;7.81;76.77;94605.16;6219395;28;20057;-65
2022/05/21 06:22:18;;;;;;;1.55;1.00;;;;;;;7.64;75.48;94607.53;6229058;28;20491;-66
2022/05/21 06:25:25;;;;;;;1.50;0.60;;;;;;;7.77;76.34;94595.94;6224107;28;20037;-64
2022/05/21 06:28:29;;;;;;;0.25;0.20;;;;;;;8.06;73.79;94596.75;6223597;28;20406;-64
2022/05/21 06:31:31;;;;;;;0.30;0.30;;;;;;;8.00;73.65;94610.41;6231807;28;20026;-65
2022/05/21 06:34:36;;;;;;;0.20;0.20;;;;;;;7.68;74.89;94623.78;6225652;28;20076;-64
2022/05/21 06:37:39;;;;;;;0.30;0.30;;;;;;;7.56;75.72;94630.13;6222064;28;20507;-64
2022/05/21 06:40:41;;;;;;;0.30;0.30;;;;;;;7.59;75.38;94641.13;6222363;28;20140;-65
2022/05/21 06:43:50;;;;;;;0.40;0.40;;;;;;;8.17;74.85;94626.38;6228348;28;20419;-65
2022/05/21 06:46:55;;;;;;;0.22;0.22;;;;;;;8.47;73.39;94623.59;6205810;28;20044;-65
2022/05/21 06:49:58;;;;;;;0.20;0.20;;;;;;;7.95;73.11;94641.41;6224898;28;20404;-64
2022/05/21 06:53:02;;;;;;;0.20;0.20;;;;;;;7.52;74.53;94660.13;6224565;28;20591;-64
2022/05/21 06:56:12;;;;;;;0.40;0.40;;;;;;;7.54;76.00;94659.03;6229263;28;20068;-66
2022/05/21 06:59:14;;;;;;;0.30;0.30;;;;;;;7.75;75.56;94666.75;6220293;28;20168;-64
2022/05/21 07:02:18;;;;;;;;;;;;;;;7.93;72.77;94669.53;6221865;28;20132;-65
2022/05/21 07:08:41;;;;;;;0.25;0.25;;;;;;;9.16;71.59;94653.84;6228192;28;20135;-64
2022/05/21 07:11:47;;;;;;;;;;;;;;;9.57;69.27;94662.22;6227885;28;20045;-64
2022/05/21 07:14:50;;;;;;;0.10;0.10;;;;;;;9.80;68.20;94661.81;6232517;28;20394;-65
2022/05/21 07:17:58;;;;;;;0.35;0.10;;;;;;;10.30;66.66;94659.50;6231435;28;20415;-63
2022/05/21 07:21:01;;;;;;;1.05;0.43;;;;;;;10.37;63.80;94670.22;6219317;28;20053;-64
2022/05/21 07:24:04;;;;;;;0.28;0.10;;;;;;;10.02;62.67;94682.38;6234499;28;20528;-64
2022/05/21 07:27:05;;;;;;;0.10;0.10;;;;;;;9.41;63.94;94668.09;6222189;28;20392;-67
2022/05/21 07:30:08;;;;;;;0.10;0.10;;;;;;;9.06;64.78;94675.84;6219764;28;20096;-64
2022/05/21 07:33:14;;;;;;;0.10;0.10;;;;;;;8.86;63.95;94668.06;6220637;28;20049;-64
2022/05/21 07:36:18;;;;;;;0.20;0.17;;;;;;;8.60;65.35;94662.59;6221318;28;20427;-64
2022/05/21 07:39:25;;;;;;;0.85;0.40;;;;;;;8.45;67.46;94662.22;6228986;28;20054;-64
2022/05/21 07:42:30;;;;;;;0.22;0.22;;;;;;;9.86;65.18;94661.19;6231803;28;20037;-64
2022/05/21 07:45:38;;;;;;;0.30;0.20;;;;;;;12.37;61.25;94647.88;6228341;28;20412;-64
2022/05/21 07:48:42;;;;;;;0.20;0.20;;;;;;;13.70;56.54;94648.19;6218978;28;20037;-65
2022/05/21 07:56:11;;;;;;;0.10;0.10;;;;;;;15.09;49.41;94623.34;6194075;28;20034;-64
2022/05/21 07:59:14;;;;;;;0.30;0.20;;;;;;;15.90;46.57;94636.59;6201756;28;20061;-64
2022/05/21 08:02:18;;;;;;;0.47;0.30;;;;;;;15.42;46.98;94654.75;6222697;28;20064;-65
2022/05/21 08:05:19;;;;;;;0.20;0.13;;;;;;;14.53;47.48;94644.88;6218692;28;20129;-65
2022/05/21 08:08:22;;;;;;;1.17;0.20;;;;;;;13.54;49.30;94675.53;6214943;28;20052;-64
2022/05/21 08:11:23;;;;;;;0.20;0.20;;;;;;;12.76;50.02;94677.00;6208375;28;20050;-65
2022/05/21 08:14:27;;;;;;;0.10;0.10;;;;;;;14.29;47.15;94690.81;6202778;28;20042;-64
2022/05/21 08:17:31;;;;;;;0.30;0.30;;;;;;;14.32;45.59;94694.94;6210186;28;20162;-65
2022/05/21 08:20:37;;;;;;;0.40;0.30;;;;;;;13.36;48.08;94701.34;6205983;28;20034;-65
2022/05/21 08:27:02;;;;;;;0.45;0.15;;;;;;;14.99;43.06;94707.50;6207326;28;20518;-65
2022/05/21 08:30:04;;;;;;;0.10;0.10;;;;;;;14.77;44.71;94704.72;6206049;28;20060;-65
2022/05/21 08:33:09;;;;;;;0.22;0.22;;;;;;;16.47;41.11;94704.75;6220292;28;20504;-64
2022/05/21 08:36:13;;;;;;;0.30;0.30;;;;;;;15.99;43.57;94717.69;6199131;28;20512;-65
2022/05/21 08:39:18;;;;;;;1.55;0.40;;;;;;;15.75;42.24;94718.84;6210525;28;20042;-65
2022/05/21 08:42:38;;;;;;;0.55;0.45;;;;;;;15.74;42.59;94729.63;6203053;28;20030;-66
2022/05/21 08:46:02;;;;;;;0.20;0.20;;;;;;;14.97;41.66;94728.06;6221107;28;20053;-65
2022/05/21 08:49:20;;;;;;;0.20;0.20;;;;;;;14.96;41.13;94729.88;6223139;28;20500;-65
2022/05/21 08:52:58;;;;;;;0.43;0.40;;;;;;;15.09;42.06;94713.38;6210208;28;20073;-65
2022/05/21 08:56:05;;;;;;;0.40;0.30;;;;;;;17.81;38.23;94747.41;6217486;28;20642;-64
2022/05/21 08:59:11;;;;;;;0.20;0.20;;;;;;;18.86;34.38;94728.53;6228119;28;20051;-65
2022/05/21 09:02:18;;;;;;;0.30;0.30;;;;;;;20.61;32.49;94725.16;6198947;28;20078;-65
2022/05/21 09:05:25;;;;;;;0.50;0.30;;;;;;;22.64;28.63;94733.59;6199497;28;20512;-64
2022/05/21 09:08:34;;;;;;;0.20;0.15;;;;;;;22.86;27.26;94731.22;6206557;28;20049;-64
2022/05/21 09:11:49;;;;;;;0.20;0.20;;;;;;;21.86;28.18;94740.44;6247423;28;20042;-65
2022/05/21 09:15:02;;;;;;;0.50;0.20;;;;;;;21.60;28.40;94738.00;6248403;28;20049;-65
2022/05/21 09:18:07;;;;;;;0.40;0.30;;;;;;;20.11;30.50;94743.63;6230763;28;20041;-66
2022/05/21 09:21:24;;;;;;;1.25;0.20;;;;;;;21.43;29.04;94751.97;6233346;28;20094;-64
2022/05/21 09:24:58;;;;;;;0.10;0.10;;;;;;;22.54;27.52;94757.44;6206252;28;20046;-65
2022/05/21 09:28:10;;;;;;;0.20;0.20;;;;;;;21.42;28.43;94760.19;6216280;28;20132;-64
2022/05/21 09:31:20;;;;;;;0.10;0.10;;;;;;;20.55;29.16;94765.25;6232710;28;20050;-65
2022/05/21 09:34:36;;;;;;;0.38;0.10;;;;;;;19.27;30.69;94753.16;6220173;28;20046;-64
2022/05/21 09:37:41;;;;;;;0.10;0.10;;;;;;;17.68;32.85;94772.03;6227173;28;20058;-71
2022/05/21 09:40:43;;;;;;;0.00;0.00;;;;;;;16.55;34.25;94760.41;6236309;28;20053;-70
2022/05/21 09:47:21;;;;;;;1.25;0.25;;;;;;;16.27;35.67;94770.09;6244557;28;20062;-64
2022/05/21 09:50:27;;;;;;;0.65;0.20;;;;;;;17.80;33.35;94772.34;6241972;28;20057;-65
2022/05/21 09:53:36;;;;;;;0.10;0.10;;;;;;;19.51;30.28;94769.59;6244666;28;20049;-64
2022/05/21 09:56:59;;;;;;;0.73;0.10;;;;;;;18.95;30.57;94775.28;6244566;28;20739;-68
2022/05/21 10:00:24;;;;;;;0.32;0.20;;;;;;;18.05;32.81;94785.19;6244346;28;20454;-64
2022/05/21 10:03:50;;;;;;;0.28;0.28;;;;;;;18.95;31.70;94780.63;6240083;28;20037;-69
2022/05/21 10:06:57;;;;;;;0.20;0.20;;;;;;;20.26;28.64;94791.44;6242204;28;20385;-72
2022/05/21 10:13:31;;;;;;;2.95;2.28;;;;;;;18.08;31.45;94787.44;6236534;28;20056;-66
2022/05/21 10:16:45;;;;;;;0.85;0.40;;;;;;;17.60;31.98;94797.97;6227823;28;20076;-65
2022/05/21 10:20:20;;;;;;;0.35;0.20;;;;;;;17.10;33.28;94802.44;6244457;28;20056;-71
2022/05/21 10:23:45;;;;;;;3.80;2.70;;;;;;;16.63;34.11;94801.13;6245923;28;20055;-65
2022/05/21 10:27:12;;;;;;;1.42;0.90;;;;;;;16.11;35.19;94798.47;6229346;28;20136;-66
2022/05/21 10:30:36;;;;;;;0.93;0.60;;;;;;;15.73;36.34;94799.56;6221892;28;20150;-66
2022/05/21 10:33:53;;;;;;;1.52;0.82;;;;;;;15.58;36.60;94808.31;6230289;28;20048;-65
2022/05/21 10:37:28;;;;;;;1.17;0.50;;;;;;;15.08;37.77;94807.06;6245769;28;20135;-66
2022/05/21 10:40:45;;;;;;;0.82;0.20;;;;;;;14.52;37.98;94817.03;6246483;28;20059;-65
2022/05/21 10:44:01;;;;;;;0.40;0.30;;;;;;;14.16;38.30;94828.13;6246207;28;20080;-66
2022/05/21 10:47:22;;;;;;;0.30;0.30;;;;;;;14.31;38.38;94821.09;6233600;28;20044;-64
2022/05/21 10:50:35;;;;;;;0.28;0.20;;;;;;;14.48;38.13;94826.31;6227849;28;20499;-67
2022/05/21 10:54:13;;;;;;;0.63;0.30;;;;;;;14.92;37.96;94826.59;6225121;28;20041;-65
2022/05/21 10:57:39;;;;;;;0.50;0.30;;;;;;;16.82;34.63;94824.47;6232405;28;20041;-67
2022/05/21 11:01:02;;;;;;;0.38;0.20;;;;;;;17.86;32.94;94830.13;6212042;28;20606;-67
2022/05/21 11:04:17;;;;;;;0.03;0.03;;;;;;;16.97;32.80;94835.84;6226606;28;20052;-67
2022/05/21 11:07:40;;;;;;;0.63;0.25;;;;;;;16.61;33.26;94834.00;6222127;28;20484;-67
2022/05/21 11:10:59;;;;;;;0.82;0.17;;;;;;;17.13;33.14;94836.63;6226620;28;20048;-66
2022/05/21 11:14:08;;;;;;;1.00;0.30;;;;;;;17.59;32.53;94838.88;6236602;28;20045;-65
2022/05/21 11:17:39;;;;;;;0.43;0.28;;;;;;;18.15;31.71;94849.53;6220638;28;20041;-65
2022/05/21 11:21:08;;;;;;;1.40;0.30;;;;;;;18.86;31.16;94851.13;6209081;28;20052;-66
2022/05/21 11:24:33;;;;;;;0.52;0.38;;;;;;;18.31;32.13;94854.50;6238404;28;20042;-66
2022/05/21 11:27:57;;;;;;;0.52;0.10;;;;;;;17.58;32.08;94854.00;6220666;28;20052;-66
2022/05/21 11:31:10;;;;;;;0.88;0.30;;;;;;;16.13;33.68;94860.13;6220259;28;20482;-66
2022/05/21 11:37:42;;;;;;;0.20;0.13;;;;;;;14.47;36.99;94856.44;6221142;28;20042;-66
2022/05/21 11:48:16;;;;;;;0.43;0.22;;;;;;;15.34;36.04;94870.28;6221091;28;20049;-66
2022/05/21 11:51:21;;;;;;;0.63;0.30;;;;;;;14.84;36.74;94868.19;6217726;28;20124;-65
2022/05/21 11:54:47;;;;;;;1.88;0.40;;;;;;;14.22;38.50;94869.75;6236893;28;20144;-66
2022/05/21 11:58:00;;;;;;;0.98;0.45;;;;;;;14.28;38.11;94863.78;6243046;28;20388;-66
2022/05/21 12:01:04;;;;;;;0.55;0.32;;;;;;;15.02;36.75;94860.75;6220197;28;20049;-66
2022/05/21 12:04:21;;;;;;;0.40;0.40;;;;;;;15.35;36.83;94876.44;6219929;28;20050;-66
2022/05/21 12:07:40;;;;;;;1.40;0.30;;;;;;;15.13;37.17;94872.78;6226927;28;20042;-66
2022/05/21 12:11:05;;;;;;;1.15;0.30;;;;;;;14.61;37.76;94879.56;6242993;28;20139;-67
2022/05/21 12:14:19;;;;;;;0.30;0.20;;;;;;;13.65;37.34;94870.72;6209529;28;20045;-66
2022/05/21 12:17:44;;;;;;;0.95;0.60;;;;;;;13.33;38.45;94878.66;6243950;28;20041;-65
2022/05/21 12:20:50;;;;;;;0.88;0.77;;;;;;;14.01;37.64;94880.91;6206679;28;20052;-66
2022/05/21 12:23:56;;;;;;;0.30;0.30;;;;;;;14.14;36.85;94877.72;6225359;28;20089;-65
2022/05/21 12:27:11;;;;;;;0.88;0.40;;;;;;;14.21;38.00;94883.97;6224848;28;20052;-67
2022/05/21 12:30:29;;;;;;;1.02;0.20;;;;;;;14.53;36.31;94876.94;6224976;28;20085;-66
2022/05/21 12:34:09;;;;;;;0.20;0.20;;;;;;;14.36;36.39;94876.97;6225490;28;20064;-66
2022/05/21 12:37:51;;;;;;;0.30;0.30;;;;;;;14.30;36.62;94882.13;6221775;28;20055;-66
2022/05/21 12:41:24;;;;;;;0.50;0.40;;;;;;;13.75;37.48;94883.75;6164419;28;20053;-66
2022/05/21 12:44:40;;;;;;;0.40;0.40;;;;;;;13.43;38.20;94885.41;6226008;28;20046;-65
2022/05/21 12:47:48;;;;;;;0.32;0.30;;;;;;;13.14;39.06;94879.78;6224418;28;20630;-66
2022/05/21 12:51:23;;;;;;;0.30;0.30;;;;;;;13.10;39.44;94886.38;6241497;28;20045;-66
2022/05/21 12:54:28;;;;;;;2.28;0.50;;;;;;;13.07;39.34;94889.34;6248685;28;20131;-66
2022/05/21 12:57:32;;;;;;;0.30;0.30;;;;;;;12.87;39.08;94889.63;6248601;28;20041;-66
2022/05/21 13:00:46;;;;;;;0.32;0.32;;;;;;;12.45;39.21;94887.88;6230452;28;20045;-66
2022/05/21 13:03:50;;;;;;;0.32;0.32;;;;;;;12.13;40.42;94897.28;6247169;28;20057;-66
2022/05/21 13:07:19;;;;;;;0.55;0.40;;;;;;;11.80;41.07;94890.97;6237490;28;20129;-66
2022/05/21 13:10:31;;;;;;;0.40;0.35;;;;;;;12.10;40.65;94900.25;6220257;28;20077;-65
2022/05/21 13:13:39;;;;;;;1.23;0.73;;;;;;;12.13;40.15;94901.75;6222707;28;20255;-66
2022/05/21 13:16:51;;;;;;;1.30;1.02;;;;;;;11.50;42.00;94913.34;6224011;28;20539;-66
2022/05/21 13:20:19;;;;;;;1.77;0.40;;;;;;;11.24;42.98;94916.75;6223531;28;20038;-66
2022/05/21 13:23:57;;;;;;;1.30;0.30;;;;;;;11.09;43.79;94917.44;6228407;28;20080;-66
2022/05/21 13:27:08;;;;;;;0.28;0.28;;;;;;;11.51;43.40;94922.06;6247503;28;20526;-65
2022/05/21 13:30:16;;;;;;;0.52;0.40;;;;;;;11.50;43.55;94928.31;6230003;28;20053;-65
2022/05/21 13:33:32;;;;;;;0.30;0.30;;;;;;;11.21;43.96;94922.34;6246427;28;20053;-66
2022/05/21 13:36:34;;;;;;;0.75;0.40;;;;;;;11.51;43.19;94943.13;6247490;28;20045;-66
2022/05/21 13:39:41;;;;;;;0.50;0.40;;;;;;;11.35;42.88;94938.56;6247092;28;20057;-65
2022/05/21 13:42:47;;;;;;;0.77;0.60;;;;;;;11.10;43.46;94945.44;6222665;28;20482;-65
2022/05/21 13:46:02;;;;;;;0.50;0.43;;;;;;;11.11;43.47;94953.16;6236168;28;20046;-66
2022/05/21 13:49:19;;;;;;;0.57;0.40;;;;;;;10.91;43.64;94949.00;6247178;28;20151;-65
2022/05/21 13:52:24;;;;;;;0.80;0.70;;;;;;;10.65;43.99;94968.13;6245360;28;20049;-66
2022/05/21 13:55:28;;;;;;;1.88;0.60;;;;;;;10.59;43.80;94962.59;6247100;28;20045;-66
2022/05/21 13:58:35;;;;;;;0.80;0.50;;;;;;;10.04;45.23;94968.63;6231840;28;20049;-65
2022/05/21 14:01:42;;;;;;;0.80;0.68;;;;;;;9.83;46.39;94977.53;6222232;28;20050;-66
2022/05/21 14:04:45;;;;;;;0.70;0.70;;;;;;;9.41;47.33;94975.22;6222453;28;20128;-66
2022/05/21 14:08:19;;;;;;;0.85;0.75;;;;;;;9.22;47.39;94989.16;6222220;28;20041;-65
2022/05/21 14:11:25;;;;;;;2.05;1.42;;;;;;;9.24;46.95;94991.66;6214821;28;20459;-65
2022/05/21 14:14:33;;;;;;;0.80;0.80;;;;;;;9.21;47.18;94991.94;6221624;28;20065;-66
2022/05/21 14:17:42;;;;;;;1.77;0.90;;;;;;;9.19;47.29;95004.34;6222115;28;20535;-66
2022/05/21 14:21:06;;;;;;;1.75;1.40;;;;;;;9.36;46.77;95008.91;6222089;28;20054;-66
2022/05/21 14:24:23;;;;;;;1.77;1.57;;;;;;;9.15;46.69;95008.22;6221751;28;20169;-66
2022/05/21 14:27:29;;;;;;;1.50;1.20;;;;;;;8.90;47.49;95006.94;6225889;28;20052;-65
2022/05/21 14:30:39;;;;;;;1.17;1.02;;;;;;;9.00;47.80;95015.63;6212379;28;20053;-66
2022/05/21 14:33:52;;;;;;;1.17;1.10;;;;;;;9.04;47.69;95016.22;6245536;28;20079;-66
2022/05/21 14:36:56;;;;;;;1.92;1.45;;;;;;;9.07;48.05;95010.69;6246303;28;20041;-67
2022/05/21 14:40:03;;;;;;;6.68;4.60;;;;;;;8.94;48.45;95022.25;6246495;28;20052;-67
2022/05/21 14:43:06;;;;;;;2.38;2.17;;;;;;;8.98;48.15;95030.72;6245335;28;20045;-68
2022/05/21 14:49:30;;;;;;;1.60;1.50;;;;;;;8.81;47.49;95026.09;6244869;28;20080;-66
2022/05/21 14:52:52;;;;;;;1.95;1.60;;;;;;;8.33;48.11;95033.63;6245789;28;20049;-65
2022/05/21 14:55:54;;;;;;;1.83;1.70;;;;;;;8.28;47.97;95029.72;6246261;28;20056;-65
2022/05/21 14:58:59;;;;;;;1.70;1.60;;;;;;;8.08;48.42;95037.47;6245669;28;20041;-66
2022/05/21 15:02:01;;;;;;;1.77;1.67;;;;;;;7.82;49.10;95034.44;6227676;28;20046;-66
2022/05/21 15:05:02;;;;;;;2.33;1.90;;;;;;;7.58;49.78;95018.97;6241739;28;20042;-65
2022/05/21 15:08:05;;;;;;;2.38;1.73;;;;;;;7.54;50.15;95045.53;6221028;28;20135;-66
2022/05/21 15:11:11;;;;;;;2.25;1.98;;;;;;;7.37;50.24;95039.88;6221387;28;20074;-65
2022/05/21 15:14:13;;;;;;;;;;;;;;;7.11;51.08;95051.63;6219958;28;20627;-65
2022/05/21 15:17:16;;;;;;;2.92;2.28;;;;;;;7.07;51.52;95053.63;6220863;28;19955;-66
2022/05/21 15:20:22;;;;;;;3.20;2.60;;;;;;;7.09;52.16;95056.97;6219768;28;20120;-66
2022/05/21 15:23:26;;;;;;;2.67;2.47;;;;;;;7.17;52.03;95049.34;6219636;28;20041;-66
2022/05/21 15:26:33;;;;;;;3.80;3.17;;;;;;;7.15;51.76;95051.25;6221527;28;20046;-65
2022/05/21 15:29:35;;;;;;;3.50;2.58;;;;;;;7.19;52.08;95063.13;6237760;28;20466;-66
2022/05/21 15:32:39;;;;;;;2.80;2.55;;;;;;;6.87;52.56;95070.91;6245493;28;20116;-66
2022/05/21 15:35:41;;;;;;;3.70;3.03;;;;;;;6.57;53.40;95070.69;6245091;28;20041;-67
2022/05/21 15:38:42;;;;;;;4.80;2.65;;;;;;;6.52;53.58;95073.69;6244666;28;20045;-67